createdAt,value
2022-08-26T00:01:44.934Z,20.27
2022-08-26T00:04:12.646Z,25.40
2022-08-26T00:06:42.333Z,23.13
2022-08-26T00:09:12.396Z,21.80
2022-08-26T00:11:39.214Z,25.00
2022-08-26T00:14:07.107Z,22.20
2022-08-26T00:16:34.799Z,23.65
2022-08-26T00:19:01.990Z,23.52
2022-08-26T00:21:28.860Z,22.65
2022-08-26T00:23:56.138Z,22.50
2022-08-26T00:26:23.049Z,22.67
2022-08-26T00:28:55.561Z,23.35
2022-08-26T00:31:22.398Z,26.30
2022-08-26T00:33:49.250Z,26.20
2022-08-26T00:36:20.127Z,22.85
2022-08-26T00:38:48.114Z,20.67
2022-08-26T00:41:15.414Z,26.00
2022-08-26T00:43:47.629Z,26.00
2022-08-26T00:46:23.550Z,30.85
2022-08-26T00:48:53.758Z,21.52
2022-08-26T00:51:29.734Z,27.08
2022-08-26T00:54:07.657Z,24.02
2022-08-26T00:56:53.582Z,26.23
2022-08-26T00:59:21.597Z,28.10
2022-08-26T01:01:48.523Z,31.38
2022-08-26T01:04:20.935Z,32.63
2022-08-26T01:06:50.353Z,28.10
2022-08-26T01:09:18.614Z,27.23
2022-08-26T01:11:47.202Z,24.92
2022-08-26T01:14:15.875Z,27.17
2022-08-26T01:16:46.720Z,32.63
2022-08-26T01:19:45.543Z,29.90
2022-08-26T01:22:28.123Z,25.73
2022-08-26T01:24:57.106Z,23.00
2022-08-26T01:27:25.400Z,25.92
2022-08-26T01:29:52.858Z,29.25
2022-08-26T01:32:22.393Z,31.13
2022-08-26T01:34:50.621Z,30.67
2022-08-26T01:37:22.906Z,25.50
2022-08-26T01:39:52.179Z,27.20
2022-08-26T01:42:22.271Z,23.13
2022-08-26T01:45:12.852Z,26.75
2022-08-26T01:47:41.770Z,24.38
2022-08-26T01:50:18.068Z,22.65
2022-08-26T01:52:55.969Z,29.60
2022-08-26T01:55:32.402Z,26.27
2022-08-26T01:58:06.206Z,30.83
2022-08-26T02:00:35.236Z,24.35
2022-08-26T02:03:17.229Z,27.48
2022-08-26T02:05:54.233Z,27.73
2022-08-26T02:08:39.122Z,27.17
2022-08-26T02:11:06.722Z,25.27
2022-08-26T02:13:38.172Z,28.58
2022-08-26T02:16:06.390Z,34.63
2022-08-26T02:18:38.108Z,26.08
2022-08-26T02:21:06.609Z,26.95
2022-08-26T02:23:33.753Z,28.55
2022-08-26T02:26:09.975Z,27.60
2022-08-26T02:28:56.662Z,30.63
2022-08-26T02:31:24.792Z,30.25
2022-08-26T02:33:51.796Z,33.80
2022-08-26T02:36:21.128Z,24.85
2022-08-26T02:38:48.181Z,23.98
2022-08-26T02:41:15.400Z,24.17
2022-08-26T02:43:44.964Z,25.10
2022-08-26T02:46:11.858Z,27.85
2022-08-26T02:48:48.812Z,23.67
2022-08-26T02:51:15.687Z,28.15
2022-08-26T02:53:42.759Z,33.90
2022-08-26T02:56:10.188Z,29.65
2022-08-26T02:58:37.390Z,27.58
2022-08-26T03:01:04.892Z,32.80
2022-08-26T03:03:32.877Z,31.10
2022-08-26T03:05:59.807Z,23.77
2022-08-26T03:08:26.780Z,29.98
2022-08-26T03:10:54.146Z,28.67
2022-08-26T03:13:21.058Z,29.52
2022-08-26T03:15:47.963Z,25.80
2022-08-26T03:18:15.614Z,22.73
2022-08-26T03:20:42.421Z,25.35
2022-08-26T03:23:10.957Z,27.23
2022-08-26T03:25:37.806Z,35.72
2022-08-26T03:28:05.056Z,27.00
2022-08-26T03:30:44.980Z,30.35
2022-08-26T03:33:13.413Z,29.67
2022-08-26T03:35:43.410Z,36.15
2022-08-26T03:38:10.839Z,26.80
2022-08-26T03:40:37.838Z,27.08
2022-08-26T03:43:06.367Z,35.28
2022-08-26T03:45:37.129Z,34.72
2022-08-26T03:48:05.116Z,32.45
2022-08-26T03:50:34.373Z,33.90
2022-08-26T03:53:03.774Z,31.02
2022-08-26T03:55:32.435Z,32.45
2022-08-26T03:58:00.778Z,36.08
2022-08-26T04:00:28.039Z,30.45
2022-08-26T04:02:54.974Z,29.60
2022-08-26T04:05:23.161Z,28.42
2022-08-26T04:07:50.644Z,33.92
2022-08-26T04:10:20.074Z,29.75
2022-08-26T04:12:47.349Z,27.38
2022-08-26T04:15:15.844Z,30.15
2022-08-26T04:17:42.829Z,30.65
2022-08-26T04:20:13.886Z,29.58
2022-08-26T04:22:43.392Z,32.70
2022-08-26T04:25:10.923Z,31.70
2022-08-26T04:27:38.277Z,35.92
2022-08-26T04:30:08.936Z,41.30
2022-08-26T04:32:37.336Z,38.65
2022-08-26T04:35:05.164Z,42.80
2022-08-26T04:37:33.555Z,38.08
2022-08-26T04:40:00.552Z,33.72
2022-08-26T04:42:29.301Z,36.00
2022-08-26T04:44:56.197Z,39.13
2022-08-26T04:47:23.105Z,33.13
2022-08-26T04:49:50.128Z,32.22
2022-08-26T04:52:17.243Z,212.15
2022-08-26T04:54:44.090Z,44.08
2022-08-26T04:57:10.958Z,36.05
2022-08-26T04:59:39.464Z,50.50
2022-08-26T05:02:07.282Z,60.60
2022-08-26T05:04:34.518Z,70.72
2022-08-26T05:07:03.015Z,67.00
2022-08-26T05:09:30.478Z,107.22
2022-08-26T05:11:57.500Z,65.70
2022-08-26T05:14:24.382Z,101.63
2022-08-26T05:16:52.578Z,124.72
2022-08-26T05:19:19.669Z,35.83
2022-08-26T05:21:48.824Z,41.45
2022-08-26T05:24:16.176Z,38.67
2022-08-26T05:26:44.618Z,35.42
2022-08-26T05:29:12.102Z,35.65
2022-08-26T05:31:39.125Z,36.65
2022-08-26T05:34:07.026Z,41.83
2022-08-26T05:36:36.026Z,49.97
2022-08-26T05:39:10.565Z,39.85
2022-08-26T05:41:41.030Z,40.20
2022-08-26T05:44:10.636Z,41.33
2022-08-26T05:46:39.055Z,42.83
2022-08-26T05:49:12.680Z,36.40
2022-08-26T05:51:45.138Z,40.80
2022-08-26T05:54:13.723Z,43.40
2022-08-26T05:56:40.931Z,37.25
2022-08-26T05:59:14.707Z,39.65
2022-08-26T06:01:42.816Z,46.28
2022-08-26T06:04:10.069Z,36.95
2022-08-26T06:06:41.267Z,37.05
2022-08-26T06:09:10.912Z,43.67
2022-08-26T06:11:39.189Z,35.05
2022-08-26T06:14:08.138Z,35.78
2022-08-26T06:16:40.719Z,34.25
2022-08-26T06:19:11.438Z,40.95
2022-08-26T06:21:41.081Z,37.80
2022-08-26T06:24:32.178Z,37.88
2022-08-26T06:27:05.512Z,38.95
2022-08-26T06:29:34.591Z,38.55
2022-08-26T06:32:04.057Z,38.30
2022-08-26T06:34:31.254Z,41.38
2022-08-26T06:37:06.420Z,39.28
2022-08-26T06:39:34.049Z,34.30
2022-08-26T06:42:03.055Z,34.95
2022-08-26T06:44:34.276Z,43.40
2022-08-26T06:47:01.431Z,36.75
2022-08-26T06:49:28.330Z,38.03
2022-08-26T06:51:58.636Z,31.58
2022-08-26T06:54:26.760Z,31.08
2022-08-26T06:56:55.900Z,42.00
2022-08-26T06:59:23.983Z,38.15
2022-08-26T07:01:52.193Z,35.97
2022-08-26T07:04:20.145Z,38.65
2022-08-26T07:06:52.263Z,33.00
2022-08-26T07:09:19.934Z,44.72
2022-08-26T07:11:48.159Z,33.60
2022-08-26T07:14:16.881Z,35.83
2022-08-26T07:16:48.534Z,31.92
2022-08-26T07:19:17.451Z,35.83
2022-08-26T07:21:55.370Z,40.80
2022-08-26T07:24:22.528Z,37.38
2022-08-26T07:26:50.290Z,35.67
2022-08-26T07:29:18.417Z,31.20
2022-08-26T07:31:45.599Z,33.53
2022-08-26T07:34:13.929Z,34.13
2022-08-26T07:36:41.765Z,30.83
2022-08-26T07:39:08.945Z,32.53
2022-08-26T07:41:36.585Z,36.25
2022-08-26T07:44:04.328Z,36.95
2022-08-26T07:46:31.752Z,34.20
2022-08-26T07:48:58.639Z,32.45
2022-08-26T07:51:27.965Z,34.83
2022-08-26T07:53:55.560Z,43.30
2022-08-26T07:56:23.531Z,37.95
2022-08-26T07:58:52.034Z,38.53
2022-08-26T08:01:24.719Z,33.80
2022-08-26T08:03:54.270Z,35.50
2022-08-26T08:06:27.417Z,32.33
2022-08-26T08:08:55.792Z,35.58
2022-08-26T08:11:23.622Z,35.60
2022-08-26T08:13:56.321Z,33.63
2022-08-26T08:16:28.543Z,26.48
2022-08-26T08:18:59.320Z,34.45
2022-08-26T08:21:27.982Z,33.40
2022-08-26T08:23:57.366Z,36.75
2022-08-26T08:26:25.845Z,36.75
2022-08-26T08:28:57.633Z,34.72
2022-08-26T08:31:54.497Z,29.15
2022-08-26T08:34:15.662Z,31.65
2022-08-26T08:36:42.537Z,32.45
2022-08-26T08:39:09.528Z,39.20
2022-08-26T08:41:48.505Z,32.03
2022-08-26T08:47:20.765Z,30.70
2022-08-26T08:49:48.034Z,44.50
2022-08-26T08:52:35.192Z,33.85
2022-08-26T08:55:05.756Z,38.10
2022-08-26T08:57:53.680Z,37.70
2022-08-26T09:00:30.265Z,35.78
2022-08-26T09:03:07.518Z,37.17
2022-08-26T09:05:48.560Z,30.33
2022-08-26T09:08:24.603Z,40.10
2022-08-26T09:10:56.029Z,29.80
2022-08-26T09:13:25.234Z,32.78
2022-08-26T09:16:07.358Z,38.55
2022-08-26T09:18:56.202Z,35.30
2022-08-26T09:21:25.283Z,28.73
2022-08-26T09:23:56.709Z,33.38
2022-08-26T09:26:47.406Z,31.33
2022-08-26T09:29:24.550Z,33.08
2022-08-26T09:31:53.095Z,26.08
2022-08-26T09:34:23.041Z,29.05
2022-08-26T09:36:54.877Z,30.75
2022-08-26T09:39:25.034Z,30.63
2022-08-26T09:42:16.778Z,32.30
2022-08-26T09:44:57.712Z,32.75
2022-08-26T09:47:48.026Z,32.03
2022-08-26T09:50:31.045Z,33.53
2022-08-26T09:53:15.660Z,40.42
2022-08-26T09:55:45.349Z,34.78
2022-08-26T09:58:32.193Z,38.53
2022-08-26T10:01:02.497Z,36.08
2022-08-26T10:03:33.352Z,66.00
2022-08-26T10:06:23.266Z,36.03
2022-08-26T10:08:54.974Z,34.60
2022-08-26T10:11:30.837Z,37.05
2022-08-26T10:14:13.299Z,41.53
2022-08-26T10:16:50.838Z,30.55
2022-08-26T10:19:25.628Z,35.30
2022-08-26T10:22:37.330Z,33.10
2022-08-26T10:25:09.098Z,36.53
2022-08-26T10:27:49.728Z,30.02
2022-08-26T10:30:22.488Z,25.33
2022-08-26T10:32:55.507Z,31.42
2022-08-26T10:35:23.595Z,29.38
2022-08-26T10:37:58.722Z,31.55
2022-08-26T10:41:09.798Z,30.85
2022-08-26T10:43:40.906Z,30.55
2022-08-26T10:46:20.678Z,35.50
2022-08-26T10:48:53.888Z,31.55
2022-08-26T10:51:47.522Z,30.10
2022-08-26T10:54:50.771Z,34.35
2022-08-26T10:57:42.907Z,34.60
2022-08-26T11:00:40.906Z,36.53
2022-08-26T11:03:36.977Z,30.70
2022-08-26T11:06:19.680Z,41.03
2022-08-26T11:09:00.999Z,31.40
2022-08-26T11:11:39.911Z,40.30
2022-08-26T11:14:10.317Z,38.60
2022-08-26T11:16:49.707Z,38.70
2022-08-26T11:19:58.864Z,41.75
2022-08-26T11:22:29.134Z,29.77
2022-08-26T11:24:55.951Z,35.50
2022-08-26T11:27:25.985Z,33.85
2022-08-26T11:30:15.743Z,47.83
2022-08-26T11:32:53.051Z,36.72
2022-08-26T11:35:19.869Z,35.78
2022-08-26T11:37:51.500Z,32.92
2022-08-26T11:40:27.881Z,38.13
2022-08-26T11:43:00.531Z,34.50
2022-08-26T11:45:37.836Z,32.05
2022-08-26T11:48:28.278Z,46.05
2022-08-26T11:51:01.743Z,45.40
2022-08-26T11:53:33.293Z,45.22
2022-08-26T11:56:04.440Z,46.17
2022-08-26T11:58:31.961Z,40.80
2022-08-26T12:01:09.835Z,44.72
2022-08-26T12:03:44.529Z,51.63
2022-08-26T12:06:21.873Z,47.22
2022-08-26T12:08:49.353Z,43.45
2022-08-26T12:11:25.536Z,51.80
2022-08-26T12:13:57.190Z,40.17
2022-08-26T12:16:27.529Z,45.25
2022-08-26T12:18:56.518Z,44.03
2022-08-26T12:21:31.481Z,42.60
2022-08-26T12:24:03.993Z,45.33
2022-08-26T12:26:34.819Z,44.35
2022-08-26T12:29:09.968Z,43.45
2022-08-26T12:32:06.078Z,52.00
2022-08-26T12:34:34.425Z,41.83
2022-08-26T12:37:01.529Z,46.33
2022-08-26T12:39:35.363Z,36.22
2022-08-26T12:42:40.283Z,33.80
2022-08-26T12:45:08.434Z,40.42
2022-08-26T12:47:42.704Z,49.17
2022-08-26T12:50:19.232Z,37.25
2022-08-26T12:53:25.861Z,34.38
2022-08-26T12:55:58.181Z,36.28
2022-08-26T12:58:33.413Z,30.27
2022-08-26T13:03:43.836Z,34.47
2022-08-26T13:06:22.680Z,33.72
2022-08-26T13:09:02.335Z,30.13
2022-08-26T13:11:32.412Z,34.78
2022-08-26T13:14:18.405Z,26.77
2022-08-26T13:16:51.427Z,29.67
2022-08-26T13:19:21.975Z,30.85
2022-08-26T13:21:53.888Z,22.90
2022-08-26T13:24:39.775Z,19.33
2022-08-26T13:27:09.980Z,21.75
2022-08-26T13:29:37.168Z,26.25
2022-08-26T13:32:05.933Z,27.77
2022-08-26T13:34:34.247Z,27.85
2022-08-26T13:37:01.182Z,26.48
2022-08-26T13:39:28.246Z,24.83
2022-08-26T13:41:55.247Z,22.50
2022-08-26T13:44:22.075Z,23.42
2022-08-26T13:46:49.016Z,24.75
2022-08-26T13:49:16.029Z,24.60
2022-08-26T13:51:42.979Z,27.40
2022-08-26T13:54:09.841Z,20.55
2022-08-26T13:56:37.446Z,28.42
2022-08-26T13:59:05.802Z,21.58
2022-08-26T14:01:34.695Z,13.27
2022-08-26T14:04:02.956Z,12.57
2022-08-26T14:06:30.267Z,11.90
2022-08-26T14:08:57.191Z,13.02
2022-08-26T14:11:24.956Z,13.55
2022-08-26T14:13:52.418Z,11.18
2022-08-26T14:16:33.527Z,11.45
2022-08-26T14:19:01.912Z,11.80
2022-08-26T14:21:31.824Z,11.75
2022-08-26T14:24:00.906Z,11.05
2022-08-26T14:26:29.792Z,11.88
2022-08-26T14:28:58.908Z,11.50
2022-08-26T14:31:27.223Z,8.23
2022-08-26T14:33:56.685Z,19.52
2022-08-26T14:36:29.542Z,8.23
2022-08-26T14:39:01.948Z,11.15
2022-08-26T14:41:30.741Z,11.10
2022-08-26T14:44:05.784Z,13.82
2022-08-26T14:46:39.335Z,13.80
2022-08-26T14:49:10.349Z,9.73
2022-08-26T14:51:38.497Z,11.40
2022-08-26T14:54:14.648Z,11.55
2022-08-26T14:56:46.267Z,13.35
2022-08-26T14:59:17.556Z,12.45
2022-08-26T15:01:45.410Z,61.88
2022-08-26T15:04:12.621Z,32.30
2022-08-26T15:06:40.519Z,25.08
2022-08-26T15:09:08.406Z,18.90
2022-08-26T15:11:35.298Z,29.75
2022-08-26T15:14:02.617Z,28.75
2022-08-26T15:16:30.476Z,24.17
2022-08-26T15:18:57.958Z,19.25
2022-08-26T15:21:26.598Z,20.67
2022-08-26T15:23:54.196Z,21.38
2022-08-26T15:26:23.052Z,23.17
2022-08-26T15:28:50.945Z,20.90
2022-08-26T15:31:18.940Z,23.83
2022-08-26T15:33:45.954Z,19.48
2022-08-26T15:36:12.877Z,20.25
2022-08-26T15:38:42.568Z,16.00
2022-08-26T15:41:10.344Z,23.17
2022-08-26T15:43:37.991Z,14.57
2022-08-26T15:46:10.450Z,16.75
2022-08-26T15:48:38.343Z,11.35
2022-08-26T15:51:06.738Z,11.70
2022-08-26T15:53:35.060Z,8.02
2022-08-26T15:56:02.453Z,8.60
2022-08-26T15:58:30.230Z,8.82
2022-08-26T16:00:57.450Z,9.65
2022-08-26T16:03:25.404Z,8.32
2022-08-26T16:05:52.384Z,8.02
2022-08-26T16:08:20.238Z,7.88
2022-08-26T16:10:50.549Z,9.77
2022-08-26T16:13:20.044Z,6.68
2022-08-26T16:15:47.968Z,3.90
2022-08-26T16:18:15.577Z,5.30
2022-08-26T16:20:55.390Z,6.25
2022-08-26T16:23:38.448Z,4.03
2022-08-26T16:26:10.676Z,4.88
2022-08-26T16:28:38.289Z,6.95
2022-08-26T16:31:06.690Z,5.13
2022-08-26T16:33:33.704Z,15.75
2022-08-26T16:36:00.711Z,22.45
2022-08-26T16:38:27.689Z,19.08
2022-08-26T16:40:54.569Z,26.45
2022-08-26T16:43:21.610Z,22.63
2022-08-26T16:45:48.473Z,26.17
2022-08-26T16:48:15.634Z,28.27
2022-08-26T16:50:42.483Z,28.92
2022-08-26T16:55:45.946Z,22.90
2022-08-26T16:58:12.919Z,25.92
2022-08-26T17:00:39.920Z,22.73
2022-08-26T17:03:06.836Z,21.20
2022-08-26T17:05:33.746Z,33.22
2022-08-26T17:08:00.759Z,24.25
2022-08-26T17:10:29.529Z,24.33
2022-08-26T17:12:57.246Z,27.23
2022-08-26T17:15:25.465Z,26.23
2022-08-26T17:17:53.638Z,26.85
2022-08-26T17:20:22.593Z,24.05
2022-08-26T17:22:51.754Z,28.38
2022-08-26T17:25:24.054Z,31.25
2022-08-26T17:27:51.001Z,32.15
2022-08-26T17:30:18.511Z,30.15
2022-08-26T17:32:46.332Z,28.77
2022-08-26T17:35:14.317Z,23.10
2022-08-26T17:37:41.681Z,29.05
2022-08-26T17:40:12.463Z,24.83
2022-08-26T17:42:40.196Z,29.20
2022-08-26T17:45:08.784Z,24.90
2022-08-26T17:47:35.791Z,31.15
2022-08-26T17:50:03.770Z,24.63
2022-08-26T17:52:30.880Z,24.75
2022-08-26T17:54:57.752Z,16.50
2022-08-26T17:57:25.932Z,21.10
2022-08-26T17:59:53.658Z,20.70
2022-08-26T18:02:21.235Z,16.05
2022-08-26T18:04:48.475Z,19.85
2022-08-26T18:07:16.141Z,20.70
2022-08-26T18:09:44.001Z,19.48
2022-08-26T18:12:11.663Z,18.77
2022-08-26T18:14:38.834Z,18.42
2022-08-26T18:17:05.839Z,18.05
2022-08-26T18:19:32.769Z,21.08
2022-08-26T18:21:59.703Z,18.65
2022-08-26T18:24:30.284Z,13.98
2022-08-26T18:26:57.527Z,21.00
2022-08-26T18:29:25.450Z,16.75
2022-08-26T18:31:52.500Z,17.83
2022-08-26T18:34:19.507Z,19.08
2022-08-26T18:36:46.930Z,13.82
2022-08-26T18:39:15.203Z,12.63
2022-08-26T18:41:55.151Z,17.38
2022-08-26T18:44:23.297Z,13.02
2022-08-26T18:46:51.965Z,13.80
2022-08-26T18:49:20.970Z,12.05
2022-08-26T18:51:50.973Z,13.15
2022-08-26T18:56:50.909Z,13.23
2022-08-26T18:59:18.258Z,13.32
2022-08-26T19:01:45.480Z,17.90
2022-08-26T19:04:15.541Z,12.85
2022-08-26T19:06:45.033Z,12.88
2022-08-26T19:09:14.667Z,9.52
2022-08-26T19:11:44.834Z,12.50
2022-08-26T19:14:14.282Z,16.25
2022-08-26T19:16:43.738Z,17.13
2022-08-26T19:19:11.120Z,13.98
2022-08-26T19:21:39.056Z,11.07
2022-08-26T19:24:09.396Z,13.43
2022-08-26T19:26:36.682Z,12.20
2022-08-26T19:29:04.015Z,12.38
2022-08-26T19:31:31.261Z,11.10
2022-08-26T19:33:59.040Z,7.70
2022-08-26T19:36:27.406Z,11.07
2022-08-26T19:38:56.623Z,9.52
2022-08-26T19:41:37.469Z,10.13
2022-08-26T19:44:11.373Z,8.48
2022-08-26T19:49:10.474Z,18.35
2022-08-26T19:51:37.460Z,8.43
2022-08-26T19:54:04.755Z,10.43
2022-08-26T19:56:31.830Z,7.88
2022-08-26T19:58:58.903Z,8.45
2022-08-26T20:01:26.057Z,11.07
2022-08-26T20:03:53.327Z,7.07
2022-08-26T20:06:20.930Z,8.60
2022-08-26T20:08:50.629Z,10.25
2022-08-26T20:11:18.918Z,8.10
2022-08-26T20:13:47.884Z,9.88
2022-08-26T20:16:16.287Z,9.38
2022-08-26T20:19:03.173Z,12.73
2022-08-26T20:21:34.136Z,16.42
2022-08-26T20:24:12.480Z,9.52
2022-08-26T20:26:41.780Z,16.50
2022-08-26T20:29:10.664Z,11.07
2022-08-26T20:31:38.272Z,8.15
2022-08-26T20:34:06.070Z,12.18
2022-08-26T20:36:33.945Z,16.83
2022-08-26T20:39:01.178Z,14.02
2022-08-26T20:41:28.888Z,15.68
2022-08-26T20:43:56.392Z,13.15
2022-08-26T20:46:25.194Z,18.40
2022-08-26T20:48:53.392Z,16.45
2022-08-26T20:51:22.870Z,14.07
2022-08-26T20:53:50.120Z,20.88
2022-08-26T20:56:22.202Z,17.02
2022-08-26T20:58:49.610Z,20.13
2022-08-26T21:01:28.313Z,17.38
2022-08-26T21:03:57.031Z,11.90
2022-08-26T21:06:24.381Z,15.30
2022-08-26T21:08:51.375Z,16.80
2022-08-26T21:11:20.472Z,20.67
2022-08-26T21:14:04.363Z,13.65
2022-08-26T21:16:36.163Z,14.40
2022-08-26T21:19:05.843Z,15.57
2022-08-26T21:21:33.621Z,17.27
2022-08-26T21:24:00.771Z,16.33
2022-08-26T21:26:27.964Z,17.75
2022-08-26T21:28:54.868Z,16.42
2022-08-26T21:31:24.573Z,18.42
2022-08-26T21:33:52.216Z,14.30
2022-08-26T21:36:19.850Z,15.00
2022-08-26T21:38:46.874Z,18.70
2022-08-26T21:41:19.370Z,11.93
2022-08-26T21:43:47.765Z,17.65
2022-08-26T21:46:22.727Z,19.30
2022-08-26T21:48:54.887Z,16.40
2022-08-26T21:51:24.106Z,22.77
2022-08-26T21:53:52.910Z,16.88
2022-08-26T21:56:21.407Z,17.02
2022-08-26T21:58:48.294Z,14.60
2022-08-26T22:01:21.514Z,19.58
2022-08-26T22:03:49.871Z,24.88
2022-08-26T22:06:18.958Z,18.23
2022-08-26T22:08:45.976Z,19.35
2022-08-26T22:11:13.388Z,21.95
2022-08-26T22:13:42.010Z,26.13
2022-08-26T22:16:09.891Z,21.75
2022-08-26T22:18:37.978Z,26.02
2022-08-26T22:21:09.104Z,21.75
2022-08-26T22:23:37.692Z,22.48
2022-08-26T22:26:06.946Z,23.42
2022-08-26T22:28:34.296Z,21.85
2022-08-26T22:31:01.907Z,21.58
2022-08-26T22:33:29.042Z,21.13
2022-08-26T22:35:56.117Z,24.27
2022-08-26T22:38:23.821Z,20.10
2022-08-26T22:40:56.871Z,17.63
2022-08-26T22:43:25.206Z,19.35
2022-08-26T22:45:53.212Z,25.42
2022-08-26T22:48:23.805Z,22.35
2022-08-26T22:50:54.508Z,18.08
2022-08-26T22:53:24.079Z,20.77
2022-08-26T22:55:50.965Z,16.08
2022-08-26T22:58:18.592Z,18.40
2022-08-26T23:00:47.475Z,18.38
2022-08-26T23:03:15.944Z,20.30
2022-08-26T23:05:43.959Z,18.40
2022-08-26T23:08:12.358Z,26.48
2022-08-26T23:10:41.634Z,15.98
2022-08-26T23:13:08.513Z,21.63
2022-08-26T23:15:36.102Z,17.75
2022-08-26T23:18:03.687Z,21.05
2022-08-26T23:20:32.350Z,16.55
2022-08-26T23:22:59.688Z,16.83
2022-08-26T23:25:27.974Z,24.60
2022-08-26T23:27:55.335Z,15.82
2022-08-26T23:30:24.957Z,16.85
2022-08-26T23:32:51.840Z,23.85
2022-08-26T23:35:21.984Z,22.50
2022-08-26T23:37:52.894Z,19.95
2022-08-26T23:40:30.323Z,19.75
2022-08-26T23:42:58.459Z,23.27
2022-08-26T23:45:26.800Z,22.23
2022-08-26T23:47:54.607Z,19.17
2022-08-26T23:50:44.188Z,22.70
2022-08-26T23:53:17.546Z,22.80
2022-08-26T23:55:44.393Z,21.35
2022-08-26T23:58:11.504Z,25.55
